sensor_id;sensor_type;location;lat;lon;timestamp;P1;P2;P0
46302;PMS7003;32029;51.358;5.628;2023-05-14T00:01:44;1.00;1.00;1.00
46302;PMS7003;32029;51.358;5.628;2023-05-14T00:04:11;5.33;4.00;3.33
46302;PMS7003;32029;51.358;5.628;2023-05-14T00:06:38;5.67;3.33;2.00
46302;PMS7003;32029;51.358;5.628;2023-05-14T00:09:05;2.00;2.00;1.33
46302;PMS7003;32029;51.358;5.628;2023-05-14T00:11:31;7.00;3.67;3.00
46302;PMS7003;32029;51.358;5.628;2023-05-14T00:13:58;5.00;4.00;3.00
46302;PMS7003;32029;51.358;5.628;2023-05-14T00:16:25;8.00;4.00;3.67
46302;PMS7003;32029;51.358;5.628;2023-05-14T00:18:51;2.33;2.00;1.67
46302;PMS7003;32029;51.358;5.628;2023-05-14T00:21:18;3.67;3.33;3.00
46302;PMS7003;32029;51.358;5.628;2023-05-14T00:23:45;2.67;2.67;2.00
46302;PMS7003;32029;51.358;5.628;2023-05-14T00:26:11;3.33;3.33;2.33
46302;PMS7003;32029;51.358;5.628;2023-05-14T00:28:38;4.33;4.33;3.00
46302;PMS7003;32029;51.358;5.628;2023-05-14T00:31:05;6.67;4.00;3.00
46302;PMS7003;32029;51.358;5.628;2023-05-14T00:33:31;6.00;3.33;2.33
46302;PMS7003;32029;51.358;5.628;2023-05-14T00:35:58;5.00;4.00;3.00
46302;PMS7003;32029;51.358;5.628;2023-05-14T00:38:25;4.67;2.00;2.00
46302;PMS7003;32029;51.358;5.628;2023-05-14T00:40:53;1.67;1.00;1.00
46302;PMS7003;32029;51.358;5.628;2023-05-14T00:43:20;4.67;4.67;3.00
46302;PMS7003;32029;51.358;5.628;2023-05-14T00:45:51;9.67;6.00;4.00
46302;PMS7003;32029;51.358;5.628;2023-05-14T00:48:19;5.00;4.00;3.33
46302;PMS7003;32029;51.358;5.628;2023-05-14T00:50:46;4.00;2.00;2.00
46302;PMS7003;32029;51.358;5.628;2023-05-14T00:53:16;3.00;2.00;1.33
46302;PMS7003;32029;51.358;5.628;2023-05-14T00:55:44;7.00;4.67;3.67
46302;PMS7003;32029;51.358;5.628;2023-05-14T00:58:13;3.00;2.00;2.00
46302;PMS7003;32029;51.358;5.628;2023-05-14T01:00:40;4.00;3.00;2.00
46302;PMS7003;32029;51.358;5.628;2023-05-14T01:03:07;9.00;4.33;3.67
46302;PMS7003;32029;51.358;5.628;2023-05-14T01:11:39;3.67;3.00;2.00
46302;PMS7003;32029;51.358;5.628;2023-05-14T01:14:20;9.00;3.33;3.00
46302;PMS7003;32029;51.358;5.628;2023-05-14T01:17:10;5.67;5.67;4.67
46302;PMS7003;32029;51.358;5.628;2023-05-14T01:19:41;3.33;3.00;2.33
46302;PMS7003;32029;51.358;5.628;2023-05-14T01:22:09;7.00;3.67;3.00
46302;PMS7003;32029;51.358;5.628;2023-05-14T01:24:36;4.67;4.00;4.00
46302;PMS7003;32029;51.358;5.628;2023-05-14T01:27:11;4.67;3.00;2.33
46302;PMS7003;32029;51.358;5.628;2023-05-14T01:29:47;5.33;4.00;3.00
46302;PMS7003;32029;51.358;5.628;2023-05-14T01:32:18;6.00;4.00;3.00
46302;PMS7003;32029;51.358;5.628;2023-05-14T01:34:48;6.00;6.00;5.00
46302;PMS7003;32029;51.358;5.628;2023-05-14T01:37:17;5.00;4.33;4.00
46302;PMS7003;32029;51.358;5.628;2023-05-14T01:39:44;2.67;2.67;2.00
46302;PMS7003;32029;51.358;5.628;2023-05-14T01:42:11;4.67;3.00;3.00
46302;PMS7003;32029;51.358;5.628;2023-05-14T01:44:38;5.67;4.67;3.67
46302;PMS7003;32029;51.358;5.628;2023-05-14T01:47:05;9.00;3.00;2.67
46302;PMS7003;32029;51.358;5.628;2023-05-14T01:49:32;5.67;2.67;2.67
46302;PMS7003;32029;51.358;5.628;2023-05-14T01:51:59;5.00;2.33;2.00
46302;PMS7003;32029;51.358;5.628;2023-05-14T01:54:25;7.00;3.67;2.67
46302;PMS7003;32029;51.358;5.628;2023-05-14T01:56:52;5.33;3.33;2.00
46302;PMS7003;32029;51.358;5.628;2023-05-14T01:59:19;4.67;3.00;2.00
46302;PMS7003;32029;51.358;5.628;2023-05-14T02:01:45;3.33;3.33;2.00
46302;PMS7003;32029;51.358;5.628;2023-05-14T02:04:12;2.00;2.00;2.00
46302;PMS7003;32029;51.358;5.628;2023-05-14T02:06:39;3.33;2.00;1.67
46302;PMS7003;32029;51.358;5.628;2023-05-14T02:09:06;5.67;3.00;2.33
46302;PMS7003;32029;51.358;5.628;2023-05-14T02:11:32;4.67;3.00;2.00
46302;PMS7003;32029;51.358;5.628;2023-05-14T02:13:59;6.67;3.33;3.00
46302;PMS7003;32029;51.358;5.628;2023-05-14T02:16:26;5.00;2.33;2.00
46302;PMS7003;32029;51.358;5.628;2023-05-14T02:18:52;4.33;2.00;1.67
46302;PMS7003;32029;51.358;5.628;2023-05-14T02:21:19;4.00;3.00;3.00
46302;PMS7003;32029;51.358;5.628;2023-05-14T02:23:46;2.00;2.00;1.67
46302;PMS7003;32029;51.358;5.628;2023-05-14T02:26:14;5.00;4.00;3.00
46302;PMS7003;32029;51.358;5.628;2023-05-14T02:28:41;4.00;3.67;3.33
46302;PMS7003;32029;51.358;5.628;2023-05-14T02:31:08;8.67;4.33;3.00
46302;PMS7003;32029;51.358;5.628;2023-05-14T02:33:34;5.00;3.67;3.00
46302;PMS7003;32029;51.358;5.628;2023-05-14T02:36:01;3.67;3.00;1.67
46302;PMS7003;32029;51.358;5.628;2023-05-14T02:38:28;6.67;4.67;3.00
46302;PMS7003;32029;51.358;5.628;2023-05-14T02:40:55;5.67;3.33;3.00
46302;PMS7003;32029;51.358;5.628;2023-05-14T02:43:22;8.67;4.00;4.00
46302;PMS7003;32029;51.358;5.628;2023-05-14T02:45:48;8.00;3.67;3.00
46302;PMS7003;32029;51.358;5.628;2023-05-14T02:48:15;5.00;3.00;2.00
46302;PMS7003;32029;51.358;5.628;2023-05-14T02:50:42;3.00;2.00;1.67
46302;PMS7003;32029;51.358;5.628;2023-05-14T02:53:08;4.00;3.33;2.67
46302;PMS7003;32029;51.358;5.628;2023-05-14T02:55:35;2.67;2.67;2.33
46302;PMS7003;32029;51.358;5.628;2023-05-14T02:58:02;5.33;3.67;3.00
46302;PMS7003;32029;51.358;5.628;2023-05-14T03:00:28;4.00;3.00;2.33
46302;PMS7003;32029;51.358;5.628;2023-05-14T03:02:55;5.67;3.00;3.00
46302;PMS7003;32029;51.358;5.628;2023-05-14T03:05:22;6.00;4.33;2.33
46302;PMS7003;32029;51.358;5.628;2023-05-14T03:07:50;5.00;5.00;4.00
46302;PMS7003;32029;51.358;5.628;2023-05-14T03:10:17;3.00;3.00;2.67
46302;PMS7003;32029;51.358;5.628;2023-05-14T03:12:43;4.00;4.00;3.67
46302;PMS7003;32029;51.358;5.628;2023-05-14T03:15:10;4.00;3.00;2.00
46302;PMS7003;32029;51.358;5.628;2023-05-14T03:17:37;5.00;2.00;1.67
46302;PMS7003;32029;51.358;5.628;2023-05-14T03:20:04;6.00;5.33;3.67
46302;PMS7003;32029;51.358;5.628;2023-05-14T03:22:31;5.00;5.00;4.00
46302;PMS7003;32029;51.358;5.628;2023-05-14T03:24:57;7.33;5.00;4.00
46302;PMS7003;32029;51.358;5.628;2023-05-14T03:27:24;7.00;5.67;3.67
46302;PMS7003;32029;51.358;5.628;2023-05-14T03:29:51;4.00;4.00;3.67
46302;PMS7003;32029;51.358;5.628;2023-05-14T03:32:18;5.00;2.33;2.00
46302;PMS7003;32029;51.358;5.628;2023-05-14T03:34:44;4.33;3.67;2.67
46302;PMS7003;32029;51.358;5.628;2023-05-14T03:37:11;4.00;3.00;3.00
46302;PMS7003;32029;51.358;5.628;2023-05-14T03:39:38;5.00;3.67;3.00
46302;PMS7003;32029;51.358;5.628;2023-05-14T03:42:04;8.00;5.00;4.00
46302;PMS7003;32029;51.358;5.628;2023-05-14T03:44:31;5.33;3.33;3.00
46302;PMS7003;32029;51.358;5.628;2023-05-14T03:46:58;4.00;4.00;3.33
46302;PMS7003;32029;51.358;5.628;2023-05-14T03:49:24;4.67;4.00;3.00
46302;PMS7003;32029;51.358;5.628;2023-05-14T03:51:51;3.00;3.00;2.00
46302;PMS7003;32029;51.358;5.628;2023-05-14T03:54:18;5.00;4.00;3.00
46302;PMS7003;32029;51.358;5.628;2023-05-14T03:56:44;8.00;4.00;3.00
46302;PMS7003;32029;51.358;5.628;2023-05-14T03:59:11;7.00;6.00;3.00
46302;PMS7003;32029;51.358;5.628;2023-05-14T04:01:38;5.00;4.00;3.33
46302;PMS7003;32029;51.358;5.628;2023-05-14T04:04:04;6.00;4.00;3.00
46302;PMS7003;32029;51.358;5.628;2023-05-14T04:06:31;6.67;4.00;3.00
46302;PMS7003;32029;51.358;5.628;2023-05-14T04:08:59;8.67;6.00;5.00
46302;PMS7003;32029;51.358;5.628;2023-05-14T04:11:25;4.33;4.33;3.33
46302;PMS7003;32029;51.358;5.628;2023-05-14T04:13:52;6.33;3.00;3.00
46302;PMS7003;32029;51.358;5.628;2023-05-14T04:16:19;3.67;3.67;2.67
46302;PMS7003;32029;51.358;5.628;2023-05-14T04:18:45;7.67;4.00;3.00
46302;PMS7003;32029;51.358;5.628;2023-05-14T04:21:12;6.33;4.00;3.00
46302;PMS7003;32029;51.358;5.628;2023-05-14T04:23:39;4.33;4.33;3.67
46302;PMS7003;32029;51.358;5.628;2023-05-14T04:26:05;4.00;2.67;2.33
46302;PMS7003;32029;51.358;5.628;2023-05-14T04:28:32;5.00;2.33;2.00
46302;PMS7003;32029;51.358;5.628;2023-05-14T04:30:59;4.00;4.00;3.00
46302;PMS7003;32029;51.358;5.628;2023-05-14T04:33:26;5.00;3.67;3.00
46302;PMS7003;32029;51.358;5.628;2023-05-14T04:35:53;9.00;5.67;4.00
46302;PMS7003;32029;51.358;5.628;2023-05-14T04:38:19;8.67;5.00;4.00
46302;PMS7003;32029;51.358;5.628;2023-05-14T04:40:46;9.00;5.00;3.67
46302;PMS7003;32029;51.358;5.628;2023-05-14T04:43:13;5.33;5.00;3.00
46302;PMS7003;32029;51.358;5.628;2023-05-14T04:45:40;9.00;6.00;5.00
46302;PMS7003;32029;51.358;5.628;2023-05-14T04:48:06;8.33;6.00;4.00
46302;PMS7003;32029;51.358;5.628;2023-05-14T04:50:34;4.67;4.00;3.00
46302;PMS7003;32029;51.358;5.628;2023-05-14T04:53:00;7.00;7.00;5.00
46302;PMS7003;32029;51.358;5.628;2023-05-14T04:55:28;5.00;3.67;3.33
46302;PMS7003;32029;51.358;5.628;2023-05-14T04:57:55;5.00;4.00;3.00
46302;PMS7003;32029;51.358;5.628;2023-05-14T05:00:22;2.00;2.00;1.33
46302;PMS7003;32029;51.358;5.628;2023-05-14T05:02:48;3.00;3.00;3.00
46302;PMS7003;32029;51.358;5.628;2023-05-14T05:05:15;3.00;2.00;1.00
46302;PMS7003;32029;51.358;5.628;2023-05-14T05:07:42;4.67;4.67;4.00
46302;PMS7003;32029;51.358;5.628;2023-05-14T05:10:08;7.67;4.67;3.00
46302;PMS7003;32029;51.358;5.628;2023-05-14T05:12:35;4.00;4.00;4.00
46302;PMS7003;32029;51.358;5.628;2023-05-14T05:15:02;9.67;7.00;4.33
46302;PMS7003;32029;51.358;5.628;2023-05-14T05:17:29;5.00;4.33;3.00
46302;PMS7003;32029;51.358;5.628;2023-05-14T05:19:56;4.00;2.67;2.00
46302;PMS7003;32029;51.358;5.628;2023-05-14T05:22:23;6.00;4.33;2.33
46302;PMS7003;32029;51.358;5.628;2023-05-14T05:24:49;4.67;4.00;3.00
46302;PMS7003;32029;51.358;5.628;2023-05-14T05:27:17;11.40;4.80;3.40
46302;PMS7003;32029;51.358;5.628;2023-05-14T05:29:46;5.33;5.00;4.00
46302;PMS7003;32029;51.358;5.628;2023-05-14T05:32:12;4.67;4.67;3.33
46302;PMS7003;32029;51.358;5.628;2023-05-14T05:34:39;6.33;3.67;3.33
46302;PMS7003;32029;51.358;5.628;2023-05-14T05:37:06;6.00;5.67;4.00
46302;PMS7003;32029;51.358;5.628;2023-05-14T05:39:34;5.00;4.67;4.00
46302;PMS7003;32029;51.358;5.628;2023-05-14T05:42:02;13.40;7.20;5.60
46302;PMS7003;32029;51.358;5.628;2023-05-14T05:44:30;10.00;6.67;4.67
46302;PMS7003;32029;51.358;5.628;2023-05-14T05:46:58;6.40;4.60;2.80
46302;PMS7003;32029;51.358;5.628;2023-05-14T05:49:26;5.80;5.80;3.80
46302;PMS7003;32029;51.358;5.628;2023-05-14T05:51:53;14.00;9.33;7.33
46302;PMS7003;32029;51.358;5.628;2023-05-14T05:54:19;4.67;2.67;2.33
46302;PMS7003;32029;51.358;5.628;2023-05-14T05:56:46;9.00;6.00;4.67
46302;PMS7003;32029;51.358;5.628;2023-05-14T05:59:13;3.00;3.00;2.00
46302;PMS7003;32029;51.358;5.628;2023-05-14T06:01:39;3.33;2.00;1.00
46302;PMS7003;32029;51.358;5.628;2023-05-14T06:04:08;11.67;7.33;5.00
46302;PMS7003;32029;51.358;5.628;2023-05-14T06:06:35;6.67;5.00;4.00
46302;PMS7003;32029;51.358;5.628;2023-05-14T06:09:02;3.00;3.00;2.00
46302;PMS7003;32029;51.358;5.628;2023-05-14T06:11:29;10.33;5.33;4.33
46302;PMS7003;32029;51.358;5.628;2023-05-14T06:13:56;3.33;2.33;2.00
46302;PMS7003;32029;51.358;5.628;2023-05-14T06:16:23;8.33;4.33;4.00
46302;PMS7003;32029;51.358;5.628;2023-05-14T06:18:49;5.00;4.00;3.00
46302;PMS7003;32029;51.358;5.628;2023-05-14T06:21:17;5.00;4.00;3.00
46302;PMS7003;32029;51.358;5.628;2023-05-14T06:23:44;7.67;4.33;3.33
46302;PMS7003;32029;51.358;5.628;2023-05-14T06:26:11;5.33;5.00;5.00
46302;PMS7003;32029;51.358;5.628;2023-05-14T06:28:37;6.00;4.33;3.00
46302;PMS7003;32029;51.358;5.628;2023-05-14T06:31:04;9.67;9.00;6.33
46302;PMS7003;32029;51.358;5.628;2023-05-14T06:33:31;5.67;4.00;3.00
46302;PMS7003;32029;51.358;5.628;2023-05-14T06:35:58;9.00;6.33;5.00
46302;PMS7003;32029;51.358;5.628;2023-05-14T06:38:26;8.00;7.33;5.00
46302;PMS7003;32029;51.358;5.628;2023-05-14T06:40:52;7.33;7.33;5.00
46302;PMS7003;32029;51.358;5.628;2023-05-14T06:43:20;7.60;5.20;4.40
46302;PMS7003;32029;51.358;5.628;2023-05-14T06:45:47;10.00;7.00;4.33
46302;PMS7003;32029;51.358;5.628;2023-05-14T06:48:16;4.20;3.60;3.00
46302;PMS7003;32029;51.358;5.628;2023-05-14T06:50:47;9.40;6.40;4.00
46302;PMS7003;32029;51.358;5.628;2023-05-14T06:53:14;10.00;7.67;5.33
46302;PMS7003;32029;51.358;5.628;2023-05-14T06:55:41;7.67;6.00;5.00
46302;PMS7003;32029;51.358;5.628;2023-05-14T06:58:08;8.33;6.33;5.00
46302;PMS7003;32029;51.358;5.628;2023-05-14T07:00:35;8.33;4.67;3.67
46302;PMS7003;32029;51.358;5.628;2023-05-14T07:03:01;7.00;7.00;5.33
46302;PMS7003;32029;51.358;5.628;2023-05-14T07:05:28;3.67;3.00;2.00
46302;PMS7003;32029;51.358;5.628;2023-05-14T07:07:55;7.00;5.33;4.00
46302;PMS7003;32029;51.358;5.628;2023-05-14T07:10:22;6.00;4.67;2.00
46302;PMS7003;32029;51.358;5.628;2023-05-14T07:12:49;5.33;4.00;3.00
46302;PMS7003;32029;51.358;5.628;2023-05-14T07:15:16;7.00;4.33;3.67
46302;PMS7003;32029;51.358;5.628;2023-05-14T07:17:43;10.00;7.67;6.00
46302;PMS7003;32029;51.358;5.628;2023-05-14T07:20:11;9.40;6.60;5.20
46302;PMS7003;32029;51.358;5.628;2023-05-14T07:22:38;8.33;6.00;4.00
46302;PMS7003;32029;51.358;5.628;2023-05-14T07:25:05;3.33;2.67;2.00
46302;PMS7003;32029;51.358;5.628;2023-05-14T07:27:33;8.00;7.40;4.20
46302;PMS7003;32029;51.358;5.628;2023-05-14T07:29:59;5.67;5.67;4.67
46302;PMS7003;32029;51.358;5.628;2023-05-14T07:32:26;9.50;6.00;4.00
46302;PMS7003;32029;51.358;5.628;2023-05-14T07:34:53;5.00;4.00;3.00
46302;PMS7003;32029;51.358;5.628;2023-05-14T07:37:19;8.33;8.33;4.00
46302;PMS7003;32029;51.358;5.628;2023-05-14T07:39:47;6.00;4.00;4.00
46302;PMS7003;32029;51.358;5.628;2023-05-14T07:42:15;6.80;5.20;4.40
46302;PMS7003;32029;51.358;5.628;2023-05-14T07:44:42;9.00;7.00;5.00
46302;PMS7003;32029;51.358;5.628;2023-05-14T07:47:09;10.00;6.00;4.00
46302;PMS7003;32029;51.358;5.628;2023-05-14T07:49:35;9.00;7.00;5.00
46302;PMS7003;32029;51.358;5.628;2023-05-14T07:52:02;8.33;5.33;4.33
46302;PMS7003;32029;51.358;5.628;2023-05-14T07:54:29;3.00;2.00;1.33
46302;PMS7003;32029;51.358;5.628;2023-05-14T07:56:57;8.40;6.60;5.80
46302;PMS7003;32029;51.358;5.628;2023-05-14T07:59:25;8.40;5.20;3.00
46302;PMS7003;32029;51.358;5.628;2023-05-14T08:01:51;7.00;5.00;4.33
46302;PMS7003;32029;51.358;5.628;2023-05-14T08:04:18;12.33;8.33;6.00
46302;PMS7003;32029;51.358;5.628;2023-05-14T08:06:45;12.00;8.00;5.00
46302;PMS7003;32029;51.358;5.628;2023-05-14T08:09:11;6.33;4.33;3.33
46302;PMS7003;32029;51.358;5.628;2023-05-14T08:11:38;3.00;2.67;1.00
46302;PMS7003;32029;51.358;5.628;2023-05-14T08:14:05;4.33;3.00;3.00
46302;PMS7003;32029;51.358;5.628;2023-05-14T08:16:31;3.67;3.67;2.33
46302;PMS7003;32029;51.358;5.628;2023-05-14T08:18:58;7.33;4.67;3.67
46302;PMS7003;32029;51.358;5.628;2023-05-14T08:21:25;8.00;5.33;5.00
46302;PMS7003;32029;51.358;5.628;2023-05-14T08:23:54;8.20;7.20;5.20
46302;PMS7003;32029;51.358;5.628;2023-05-14T08:26:21;3.00;3.00;2.67
46302;PMS7003;32029;51.358;5.628;2023-05-14T08:28:48;6.33;5.33;4.00
46302;PMS7003;32029;51.358;5.628;2023-05-14T08:31:15;7.00;5.00;4.00
46302;PMS7003;32029;51.358;5.628;2023-05-14T08:33:43;7.80;5.80;4.80
46302;PMS7003;32029;51.358;5.628;2023-05-14T08:36:11;5.20;5.00;4.00
46302;PMS7003;32029;51.358;5.628;2023-05-14T08:38:40;11.20;7.40;5.40
46302;PMS7003;32029;51.358;5.628;2023-05-14T08:41:07;6.33;6.33;5.00
46302;PMS7003;32029;51.358;5.628;2023-05-14T08:43:53;4.80;3.00;2.20
46302;PMS7003;32029;51.358;5.628;2023-05-14T08:46:29;4.00;4.00;3.00
46302;PMS7003;32029;51.358;5.628;2023-05-14T08:48:59;6.67;5.33;4.00
46302;PMS7003;32029;51.358;5.628;2023-05-14T08:51:34;8.67;5.67;4.67
46302;PMS7003;32029;51.358;5.628;2023-05-14T08:54:01;7.00;5.00;4.00
46302;PMS7003;32029;51.358;5.628;2023-05-14T08:56:30;4.00;2.33;2.00
46302;PMS7003;32029;51.358;5.628;2023-05-14T08:58:58;8.00;6.20;4.40
46302;PMS7003;32029;51.358;5.628;2023-05-14T09:01:26;5.33;2.33;1.00
46302;PMS7003;32029;51.358;5.628;2023-05-14T09:03:55;4.80;3.00;2.40
46302;PMS7003;32029;51.358;5.628;2023-05-14T09:06:21;5.33;4.67;3.00
46302;PMS7003;32029;51.358;5.628;2023-05-14T09:08:52;5.20;5.20;3.40
46302;PMS7003;32029;51.358;5.628;2023-05-14T09:11:20;5.00;5.00;3.80
46302;PMS7003;32029;51.358;5.628;2023-05-14T09:13:47;6.33;4.00;3.33
46302;PMS7003;32029;51.358;5.628;2023-05-14T09:16:13;6.33;3.67;3.00
46302;PMS7003;32029;51.358;5.628;2023-05-14T09:18:43;9.33;5.67;5.00
46302;PMS7003;32029;51.358;5.628;2023-05-14T09:21:14;6.00;4.00;3.40
46302;PMS7003;32029;51.358;5.628;2023-05-14T09:23:41;6.67;4.00;3.00
46302;PMS7003;32029;51.358;5.628;2023-05-14T09:26:10;10.00;5.00;4.00
46302;PMS7003;32029;51.358;5.628;2023-05-14T09:28:40;6.67;5.33;4.00
46302;PMS7003;32029;51.358;5.628;2023-05-14T09:31:08;7.33;5.00;3.33
46302;PMS7003;32029;51.358;5.628;2023-05-14T09:33:36;2.80;2.80;2.00
46302;PMS7003;32029;51.358;5.628;2023-05-14T09:36:02;3.00;3.00;2.00
46302;PMS7003;32029;51.358;5.628;2023-05-14T09:38:29;4.67;4.67;3.00
46302;PMS7003;32029;51.358;5.628;2023-05-14T09:40:58;4.00;4.00;2.67
46302;PMS7003;32029;51.358;5.628;2023-05-14T09:43:26;4.20;4.20;3.00
46302;PMS7003;32029;51.358;5.628;2023-05-14T09:45:53;7.33;4.00;3.67
46302;PMS7003;32029;51.358;5.628;2023-05-14T09:48:21;1.00;1.00;0.20
46302;PMS7003;32029;51.358;5.628;2023-05-14T09:50:48;4.33;3.67;2.00
46302;PMS7003;32029;51.358;5.628;2023-05-14T09:53:18;5.60;3.00;3.00
46302;PMS7003;32029;51.358;5.628;2023-05-14T09:55:46;4.20;3.60;2.60
46302;PMS7003;32029;51.358;5.628;2023-05-14T09:58:13;4.67;3.33;3.00
46302;PMS7003;32029;51.358;5.628;2023-05-14T10:00:42;4.33;4.33;3.00
46302;PMS7003;32029;51.358;5.628;2023-05-14T10:03:12;4.00;4.00;3.00
46302;PMS7003;32029;51.358;5.628;2023-05-14T10:05:41;6.20;5.60;3.40
46302;PMS7003;32029;51.358;5.628;2023-05-14T10:08:09;6.67;4.67;3.00
46302;PMS7003;32029;51.358;5.628;2023-05-14T10:10:48;8.40;4.40;3.20
46302;PMS7003;32029;51.358;5.628;2023-05-14T10:13:18;4.33;4.00;3.33
46302;PMS7003;32029;51.358;5.628;2023-05-14T10:15:48;3.00;3.00;2.33
46302;PMS7003;32029;51.358;5.628;2023-05-14T10:18:22;2.33;2.33;2.00
46302;PMS7003;32029;51.358;5.628;2023-05-14T10:20:56;2.67;2.00;2.00
46302;PMS7003;32029;51.358;5.628;2023-05-14T10:23:29;3.00;3.00;2.00
46302;PMS7003;32029;51.358;5.628;2023-05-14T10:25:59;5.67;3.00;2.00
46302;PMS7003;32029;51.358;5.628;2023-05-14T10:28:27;2.67;2.33;2.00
46302;PMS7003;32029;51.358;5.628;2023-05-14T10:30:53;4.00;4.00;3.00
46302;PMS7003;32029;51.358;5.628;2023-05-14T10:33:20;2.00;1.33;1.00
46302;PMS7003;32029;51.358;5.628;2023-05-14T10:36:00;6.33;5.00;3.00
46302;PMS7003;32029;51.358;5.628;2023-05-14T10:38:35;5.00;4.00;3.00
46302;PMS7003;32029;51.358;5.628;2023-05-14T10:41:03;5.67;4.67;3.33
46302;PMS7003;32029;51.358;5.628;2023-05-14T10:43:35;4.40;2.40;2.00
46302;PMS7003;32029;51.358;5.628;2023-05-14T10:46:03;4.00;4.00;3.00
46302;PMS7003;32029;51.358;5.628;2023-05-14T10:48:31;2.67;2.67;1.67
46302;PMS7003;32029;51.358;5.628;2023-05-14T10:50:58;3.00;2.00;2.00
46302;PMS7003;32029;51.358;5.628;2023-05-14T10:53:39;3.00;1.67;1.00
46302;PMS7003;32029;51.358;5.628;2023-05-14T10:56:08;5.00;4.00;3.00
46302;PMS7003;32029;51.358;5.628;2023-05-14T10:58:37;6.67;5.00;3.67
46302;PMS7003;32029;51.358;5.628;2023-05-14T11:01:09;3.00;3.00;2.00
46302;PMS7003;32029;51.358;5.628;2023-05-14T11:03:42;5.20;4.00;3.00
46302;PMS7003;32029;51.358;5.628;2023-05-14T11:06:10;5.00;3.67;3.00
46302;PMS7003;32029;51.358;5.628;2023-05-14T11:08:39;2.00;0.33;0.33
46302;PMS7003;32029;51.358;5.628;2023-05-14T11:11:07;6.00;3.00;2.33
46302;PMS7003;32029;51.358;5.628;2023-05-14T11:13:34;6.00;3.33;2.33
46302;PMS7003;32029;51.358;5.628;2023-05-14T11:16:01;3.33;2.00;1.00
46302;PMS7003;32029;51.358;5.628;2023-05-14T11:18:28;3.00;2.33;1.00
46302;PMS7003;32029;51.358;5.628;2023-05-14T11:20:57;4.00;2.67;2.33
46302;PMS7003;32029;51.358;5.628;2023-05-14T11:23:25;2.67;1.67;1.00
46302;PMS7003;32029;51.358;5.628;2023-05-14T11:25:52;2.33;2.00;2.00
46302;PMS7003;32029;51.358;5.628;2023-05-14T11:28:23;4.00;3.00;1.00
46302;PMS7003;32029;51.358;5.628;2023-05-14T11:30:52;1.80;1.80;1.00
46302;PMS7003;32029;51.358;5.628;2023-05-14T11:33:19;3.67;2.00;1.33
46302;PMS7003;32029;51.358;5.628;2023-05-14T11:35:47;2.33;2.00;2.00
46302;PMS7003;32029;51.358;5.628;2023-05-14T11:38:18;3.60;2.20;1.60
46302;PMS7003;32029;51.358;5.628;2023-05-14T11:40:54;3.20;2.80;1.80
46302;PMS7003;32029;51.358;5.628;2023-05-14T11:43:22;0.33;0.00;0.00
46302;PMS7003;32029;51.358;5.628;2023-05-14T11:45:51;3.40;2.20;1.00
46302;PMS7003;32029;51.358;5.628;2023-05-14T11:48:19;5.00;3.00;2.00
46302;PMS7003;32029;51.358;5.628;2023-05-14T11:50:47;2.00;2.00;2.00
46302;PMS7003;32029;51.358;5.628;2023-05-14T11:53:16;3.20;1.60;1.40
46302;PMS7003;32029;51.358;5.628;2023-05-14T11:55:46;3.60;3.00;2.00
46302;PMS7003;32029;51.358;5.628;2023-05-14T11:58:12;1.67;1.00;0.00
46302;PMS7003;32029;51.358;5.628;2023-05-14T12:00:43;6.60;2.00;1.60
46302;PMS7003;32029;51.358;5.628;2023-05-14T12:03:10;3.00;3.00;2.00
46302;PMS7003;32029;51.358;5.628;2023-05-14T12:05:38;1.20;0.60;0.40
46302;PMS7003;32029;51.358;5.628;2023-05-14T12:08:22;1.00;1.00;0.60
46302;PMS7003;32029;51.358;5.628;2023-05-14T12:10:53;2.40;1.00;1.00
46302;PMS7003;32029;51.358;5.628;2023-05-14T12:13:23;6.00;2.60;1.80
46302;PMS7003;32029;51.358;5.628;2023-05-14T12:15:53;3.00;1.00;1.00
46302;PMS7003;32029;51.358;5.628;2023-05-14T12:18:25;2.00;0.33;0.33
46302;PMS7003;32029;51.358;5.628;2023-05-14T12:20:55;2.00;0.20;0.00
46302;PMS7003;32029;51.358;5.628;2023-05-14T12:23:28;2.00;0.33;0.00
46302;PMS7003;32029;51.358;5.628;2023-05-14T12:26:02;1.33;1.33;1.00
46302;PMS7003;32029;51.358;5.628;2023-05-14T12:28:31;1.67;1.33;0.67
46302;PMS7003;32029;51.358;5.628;2023-05-14T12:30:58;3.00;2.00;1.00
46302;PMS7003;32029;51.358;5.628;2023-05-14T12:33:25;2.33;2.33;1.33
46302;PMS7003;32029;51.358;5.628;2023-05-14T12:35:53;4.40;2.20;1.20
46302;PMS7003;32029;51.358;5.628;2023-05-14T12:38:22;1.00;1.00;1.00
46302;PMS7003;32029;51.358;5.628;2023-05-14T12:40:49;4.67;1.00;0.33
46302;PMS7003;32029;51.358;5.628;2023-05-14T12:43:16;1.00;1.00;0.67
46302;PMS7003;32029;51.358;5.628;2023-05-14T12:45:42;0.67;0.00;0.00
46302;PMS7003;32029;51.358;5.628;2023-05-14T12:48:09;0.00;0.00;0.00
46302;PMS7003;32029;51.358;5.628;2023-05-14T12:50:37;4.00;4.00;1.80
46302;PMS7003;32029;51.358;5.628;2023-05-14T12:53:04;0.00;0.00;0.00
46302;PMS7003;32029;51.358;5.628;2023-05-14T12:55:32;4.40;1.20;0.80
46302;PMS7003;32029;51.358;5.628;2023-05-14T12:57:59;0.00;0.00;0.00
46302;PMS7003;32029;51.358;5.628;2023-05-14T13:00:26;3.67;2.00;1.00
46302;PMS7003;32029;51.358;5.628;2023-05-14T13:02:52;0.00;0.00;0.00
46302;PMS7003;32029;51.358;5.628;2023-05-14T13:05:19;2.00;1.00;0.00
46302;PMS7003;32029;51.358;5.628;2023-05-14T13:07:47;2.80;2.00;1.80
46302;PMS7003;32029;51.358;5.628;2023-05-14T13:10:14;0.67;0.67;0.00
46302;PMS7003;32029;51.358;5.628;2023-05-14T13:12:43;0.60;0.60;0.00
46302;PMS7003;32029;51.358;5.628;2023-05-14T13:15:11;1.40;1.40;1.00
46302;PMS7003;32029;51.358;5.628;2023-05-14T13:17:39;3.20;1.20;1.00
46302;PMS7003;32029;51.358;5.628;2023-05-14T13:20:06;3.00;3.00;2.00
46302;PMS7003;32029;51.358;5.628;2023-05-14T13:22:34;4.60;1.20;1.00
46302;PMS7003;32029;51.358;5.628;2023-05-14T13:25:01;2.00;0.00;0.00
46302;PMS7003;32029;51.358;5.628;2023-05-14T13:27:28;1.00;1.00;0.00
46302;PMS7003;32029;51.358;5.628;2023-05-14T13:29:55;2.00;1.00;1.00
46302;PMS7003;32029;51.358;5.628;2023-05-14T13:32:23;3.00;2.00;2.00
46302;PMS7003;32029;51.358;5.628;2023-05-14T13:34:52;0.60;0.60;0.00
46302;PMS7003;32029;51.358;5.628;2023-05-14T13:37:19;4.80;2.80;2.00
46302;PMS7003;32029;51.358;5.628;2023-05-14T13:39:47;0.40;0.40;0.00
46302;PMS7003;32029;51.358;5.628;2023-05-14T13:42:15;2.40;1.60;1.00
46302;PMS7003;32029;51.358;5.628;2023-05-14T13:44:43;3.20;1.00;0.80
46302;PMS7003;32029;51.358;5.628;2023-05-14T13:47:10;2.00;2.00;1.40
46302;PMS7003;32029;51.358;5.628;2023-05-14T13:49:37;0.00;0.00;0.00
46302;PMS7003;32029;51.358;5.628;2023-05-14T13:52:06;0.80;0.80;0.00
46302;PMS7003;32029;51.358;5.628;2023-05-14T13:54:34;0.80;0.60;0.40
46302;PMS7003;32029;51.358;5.628;2023-05-14T13:57:02;0.80;0.80;0.00
46302;PMS7003;32029;51.358;5.628;2023-05-14T13:59:30;1.20;0.60;0.00
46302;PMS7003;32029;51.358;5.628;2023-05-14T14:01:57;2.60;1.20;1.00
46302;PMS7003;32029;51.358;5.628;2023-05-14T14:04:25;3.00;1.20;1.00
46302;PMS7003;32029;51.358;5.628;2023-05-14T14:06:55;0.20;0.20;0.00
46302;PMS7003;32029;51.358;5.628;2023-05-14T14:09:23;1.60;1.00;1.00
46302;PMS7003;32029;51.358;5.628;2023-05-14T14:11:51;0.80;0.00;0.00
46302;PMS7003;32029;51.358;5.628;2023-05-14T14:14:19;2.00;0.40;0.00
46302;PMS7003;32029;51.358;5.628;2023-05-14T14:16:45;0.00;0.00;0.00
46302;PMS7003;32029;51.358;5.628;2023-05-14T14:19:12;1.33;1.00;0.00
46302;PMS7003;32029;51.358;5.628;2023-05-14T14:21:40;0.00;0.00;0.00
46302;PMS7003;32029;51.358;5.628;2023-05-14T14:24:07;0.00;0.00;0.00
46302;PMS7003;32029;51.358;5.628;2023-05-14T14:26:34;1.00;1.00;0.67
46302;PMS7003;32029;51.358;5.628;2023-05-14T14:29:02;0.00;0.00;0.00
46302;PMS7003;32029;51.358;5.628;2023-05-14T14:31:29;0.00;0.00;0.00